Temp: 12.8°C   Baro: 995.2mb
  Wind: 4.0mph   Dir: SW (219°)
  Rain: 1.8mm (0.0mm/hr)
  Solar: 91W/m2  Hum: 84%
 
Bath Spa Weather Station Historical Data
Daily Summary for April 09, 2021 Units:  Metric    English   Both
Daily Weekly Monthly Yearly Custom
  High: Low: Average:
Temperature: 11.2 °C 3.4 °C 7.1 °C
Dew Point: 6.3 °C 2.3 °C 4.4 °C
Humidity: 90% 64.4% 81%
Wind Speed: 13.4km/h 0km/h 4.5km/h
Wind Gust: 25.7km/h - -
Wind- - WSW
Pressure: 1016.1 hPa 1012.1 hPa -
Precipitation: 0 mm    
Historical Graphs
 
 
Tabular Data for April 09, 2021
Time Temperature Dew Point Pressure Wind Wind Speed Wind Gust Humidity Rainfall Rate (Hourly) solar
00:04 6.6 °C 4.1 °C 1016.1 hPa WSW 4 km/h 6.4 km/h 81% 0 mm 0 W/m2
00:09 6.5 °C 4 °C 1016.1 hPa WSW 3.5 km/h 8 km/h 81% 0 mm 0 W/m2
00:14 6.4 °C 3.9 °C 1016.1 hPa WSW 4 km/h 8 km/h 81% 0 mm 0 W/m2
00:19 6.3 °C 3.8 °C 1016.1 hPa WSW 6.3 km/h 11.3 km/h 81% 0 mm 0 W/m2
00:24 6.3 °C 3.8 °C 1016.1 hPa WSW 6 km/h 12.9 km/h 81.2% 0 mm 0 W/m2
00:29 6.3 °C 3.8 °C 1016.1 hPa WSW 3.7 km/h 9.7 km/h 81% 0 mm 0 W/m2
00:34 6.2 °C 3.8 °C 1016.1 hPa WSW 2.1 km/h 6.4 km/h 82% 0 mm 0 W/m2
00:39 6.1 °C 3.7 °C 1016.1 hPa WSW 3.4 km/h 8 km/h 82% 0 mm 0 W/m2
00:44 5.9 °C 3.6 °C 1016.1 hPa WSW 4 km/h 8 km/h 82% 0 mm 0 W/m2
00:49 5.8 °C 3.6 °C 1016.1 hPa WSW 6 km/h 9.7 km/h 82.6% 0 mm 0 W/m2
00:54 5.8 °C 3.6 °C 1015.8 hPa WSW 4.2 km/h 9.7 km/h 83% 0 mm 0 W/m2
00:59 5.7 °C 3.5 °C 1015.8 hPa WSW 1.9 km/h 6.4 km/h 83% 0 mm 0 W/m2
01:04 5.7 °C 3.4 °C 1015.8 hPa WSW 0.3 km/h 3.2 km/h 83% 0 mm 0 W/m2
01:14 5.4 °C 3.4 °C 1015.8 hPa WSW 1.3 km/h 6.4 km/h 84% 0 mm 0 W/m2
01:19 5.3 °C 3.2 °C 1015.8 hPa WSW 4 km/h 6.4 km/h 84% 0 mm 0 W/m2
01:24 5.2 °C 3.2 °C 1015.8 hPa WSW 5.1 km/h 8 km/h 84% 0 mm 0 W/m2
01:34 5.1 °C 3.3 °C 1015.5 hPa WSW 2.4 km/h 4.8 km/h 85% 0 mm 0 W/m2
01:39 5 °C 3.2 °C 1015.5 hPa WSW 3.4 km/h 8 km/h 85% 0 mm 0 W/m2
01:44 4.9 °C 3.2 °C 1015.5 hPa WSW 4.2 km/h 6.4 km/h 85% 0 mm 0 W/m2
01:49 4.9 °C 3.1 °C 1015.5 hPa WSW 3.9 km/h 8 km/h 85% 0 mm 0 W/m2
01:54 4.9 °C 3.2 °C 1015.5 hPa WSW 4 km/h 8 km/h 85.6% 0 mm 0 W/m2
01:59 4.9 °C 3.2 °C 1015.1 hPa WSW 3.4 km/h 8 km/h 86% 0 mm 0 W/m2
02:04 4.9 °C 3.2 °C 1015.1 hPa WSW 4.7 km/h 9.7 km/h 86% 0 mm 0 W/m2
02:09 5 °C 3.3 °C 1015.1 hPa WSW 3.4 km/h 8 km/h 86% 0 mm 0 W/m2
02:14 5 °C 3.3 °C 1015.1 hPa WSW 3.2 km/h 8 km/h 86% 0 mm 0 W/m2
02:19 5 °C 3.3 °C 1015.1 hPa WSW 1.9 km/h 8 km/h 86% 0 mm 0 W/m2
02:24 5 °C 3.3 °C 1015.1 hPa WSW 4.5 km/h 8 km/h 86% 0 mm 0 W/m2
02:29 5.1 °C 3.5 °C 1014.8 hPa WSW 3.9 km/h 8 km/h 86.6% 0 mm 0 W/m2
02:39 5.1 °C 3.6 °C 1014.8 hPa WSW 1.9 km/h 6.4 km/h 87% 0 mm 0 W/m2
02:44 5.1 °C 3.6 °C 1014.8 hPa WSW 2.1 km/h 9.7 km/h 87% 0 mm 0 W/m2
02:49 5.2 °C 3.7 °C 1014.8 hPa WSW 2.4 km/h 9.7 km/h 87% 0 mm 0 W/m2
02:54 5.2 °C 3.7 °C 1014.8 hPa Calm   4.8 km/h 87% 0 mm 0 W/m2
02:58 5.2 °C 3.7 °C 1014.8 hPa Calm   4.8 km/h 87% 0 mm 0 W/m2
03:04 5.2 °C 3.7 °C 1014.8 hPa WSW 1.6 km/h 6.4 km/h 87% 0 mm 0 W/m2
03:09 5.2 °C 3.7 °C 1014.8 hPa WSW 1 km/h 4.8 km/h 87% 0 mm 0 W/m2
03:14 5.1 °C 3.6 °C 1014.4 hPa WSW 0.3 km/h 3.2 km/h 87% 0 mm 0 W/m2
03:19 4.9 °C 3.4 °C 1014.4 hPa Calm     87% 0 mm 0 W/m2
03:24 4.8 °C 3.3 °C 1014.4 hPa WSW 1 km/h 4.8 km/h 87% 0 mm 0 W/m2
03:29 4.8 °C 3.3 °C 1014.4 hPa WSW 1.3 km/h 4.8 km/h 87% 0 mm 0 W/m2
03:34 4.8 °C 3.3 °C 1014.4 hPa WSW 1.9 km/h 4.8 km/h 87% 0 mm 0 W/m2
03:39 4.7 °C 3.2 °C 1014.4 hPa WSW 1.9 km/h 4.8 km/h 87% 0 mm 0 W/m2
03:44 4.7 °C 3.2 °C 1014.4 hPa WSW 1.9 km/h 4.8 km/h 87% 0 mm 0 W/m2
03:49 4.7 °C 3.2 °C 1014.4 hPa WSW 2.9 km/h 6.4 km/h 87% 0 mm 0 W/m2
03:54 4.6 °C 3.2 °C 1014.4 hPa WSW 2.6 km/h 6.4 km/h 87.6% 0 mm 0 W/m2
03:59 4.6 °C 3.3 °C 1014.4 hPa WSW 1.9 km/h 4.8 km/h 88% 0 mm 0 W/m2
04:04 4.6 °C 3.2 °C 1014.1 hPa WSW 3.2 km/h 4.8 km/h 87.8% 0 mm 0 W/m2
04:09 4.4 °C 3.1 °C 1014.4 hPa WSW 1.3 km/h 3.2 km/h 88% 0 mm 0 W/m2
04:14 4.3 °C 3 °C 1014.1 hPa WSW 2.7 km/h 4.8 km/h 88% 0 mm 0 W/m2
04:19 4.2 °C 2.9 °C 1014.1 hPa WSW 3.9 km/h 8 km/h 88% 0 mm 0 W/m2
04:23 4.3 °C 3 °C 1014.1 hPa WSW 4 km/h 6.4 km/h 88% 0 mm 0 W/m2
04:29 4.3 °C 3 °C 1014.1 hPa WSW 4.5 km/h 6.4 km/h 88% 0 mm 0 W/m2
04:34 4.3 °C 3.1 °C 1014.1 hPa WSW 3.2 km/h 8 km/h 88% 0 mm 0 W/m2
04:39 4.3 °C 3.1 °C 1014.1 hPa WSW 3.4 km/h 6.4 km/h 88% 0 mm 0 W/m2
04:44 4.4 °C 3.1 °C 1014.1 hPa WSW 3.1 km/h 6.4 km/h 88% 0 mm 0 W/m2
04:49 4.4 °C 3.1 °C 1014.1 hPa WSW 3.4 km/h 4.8 km/h 88% 0 mm 0 W/m2
04:54 4.4 °C 3.1 °C 1014.1 hPa WSW 3.2 km/h 4.8 km/h 88% 0 mm 0 W/m2
04:59 4.3 °C 3.1 °C 1013.8 hPa WSW 3.5 km/h 4.8 km/h 88% 0 mm 0 W/m2
05:04 4.3 °C 3 °C 1013.8 hPa WSW 1.6 km/h 4.8 km/h 88% 0 mm 0 W/m2
05:09 4.2 °C 2.9 °C 1013.8 hPa Calm   1.6 km/h 88% 0 mm 0 W/m2
05:14 4.2 °C 2.9 °C 1013.8 hPa WSW 1 km/h 3.2 km/h 88% 0 mm 0 W/m2
05:19 4.2 °C 2.9 °C 1013.8 hPa WSW 0.6 km/h 3.2 km/h 88% 0 mm 0 W/m2
05:24 4.1 °C 2.8 °C 1013.8 hPa Calm   1.6 km/h 88% 0 mm 0 W/m2
05:29 3.9 °C 2.7 °C 1013.8 hPa Calm     88% 0 mm 0 W/m2
05:34 3.8 °C 2.6 °C 1013.8 hPa WSW 1 km/h 4.8 km/h 88% 0 mm 0 W/m2
05:39 3.8 °C 2.5 °C 1013.8 hPa WSW 2.7 km/h 4.8 km/h 88% 0 mm 0 W/m2
05:44 3.8 °C 2.5 °C 1013.8 hPa WSW 0.3 km/h 3.2 km/h 88% 0 mm 0 W/m2
05:49 3.8 °C 2.6 °C 1013.8 hPa WSW 0.8 km/h 3.2 km/h 88.4% 0 mm 0 W/m2
05:54 3.8 °C 2.6 °C 1013.8 hPa WSW 2.6 km/h 4.8 km/h 88.2% 0 mm 0 W/m2
05:59 3.9 °C 2.7 °C 1013.8 hPa Calm   3.2 km/h 89% 0 mm 0 W/m2
06:04 3.9 °C 2.7 °C 1013.8 hPa WSW 1 km/h 4.8 km/h 89% 0 mm 0 W/m2
06:09 3.8 °C 2.7 °C 1013.4 hPa Calm     89% 0 mm 0 W/m2
06:14 3.8 °C 2.6 °C 1013.4 hPa WSW 2.4 km/h 4.8 km/h 89% 0 mm 0 W/m2
06:19 3.8 °C 2.6 °C 1013.4 hPa WSW 0.6 km/h 4.8 km/h 89% 0 mm 0 W/m2
06:24 3.8 °C 2.6 °C 1013.4 hPa Calm     89% 0 mm 0 W/m2
06:29 3.7 °C 2.5 °C 1013.8 hPa Calm     89% 0 mm 0 W/m2
06:34 3.7 °C 2.5 °C 1013.8 hPa Calm     89% 0 mm 5 W/m2
06:39 3.7 °C 2.5 °C 1013.8 hPa Calm     89% 0 mm 7 W/m2
06:44 3.6 °C 2.5 °C 1013.4 hPa Calm     89% 0 mm 12 W/m2
06:49 3.6 °C 2.4 °C 1013.8 hPa Calm     89% 0 mm 18 W/m2
06:54 3.4 °C 2.3 °C 1013.8 hPa Calm     89% 0 mm 21 W/m2
06:59 3.4 °C 2.3 °C 1013.4 hPa Calm     89% 0 mm 25 W/m2
07:04 3.4 °C 2.3 °C 1013.8 hPa Calm     89.6% 0 mm 28 W/m2
07:09 3.4 °C 2.4 °C 1013.8 hPa Calm     90% 0 mm 37 W/m2
07:14 3.5 °C 2.5 °C 1013.4 hPa Calm     90% 0 mm 37 W/m2
07:19 3.6 °C 2.6 °C 1013.8 hPa Calm     90% 0 mm 39 W/m2
07:24 3.8 °C 2.8 °C 1013.8 hPa Calm   1.6 km/h 90% 0 mm 49 W/m2
07:29 3.8 °C 2.8 °C 1013.8 hPa WSW 0.8 km/h 3.2 km/h 90% 0 mm 63 W/m2
07:34 4.1 °C 3.1 °C 1013.8 hPa WSW 1.6 km/h 4.8 km/h 90% 0 mm 70 W/m2
07:39 4.2 °C 3.2 °C 1013.8 hPa WSW 2.6 km/h 4.8 km/h 90% 0 mm 72 W/m2
07:44 4.4 °C 3.4 °C 1013.8 hPa WSW 0.6 km/h 6.4 km/h 90% 0 mm 65 W/m2
07:49 4.6 °C 3.6 °C 1013.8 hPa WSW 1.3 km/h 4.8 km/h 90% 0 mm 54 W/m2
07:54 4.7 °C 3.7 °C 1013.8 hPa WSW 2.1 km/h 4.8 km/h 90% 0 mm 65 W/m2
07:59 4.8 °C 3.8 °C 1013.8 hPa WSW 3.9 km/h 6.4 km/h 90% 0 mm 83 W/m2
08:04 4.8 °C 3.8 °C 1013.8 hPa WSW 2.9 km/h 6.4 km/h 89.6% 0 mm 88 W/m2
08:09 4.9 °C 3.8 °C 1013.8 hPa WSW 2.7 km/h 4.8 km/h 89.2% 0 mm 104 W/m2
08:14 5.1 °C 3.9 °C 1013.8 hPa WSW 1.6 km/h 3.2 km/h 89% 0 mm 105 W/m2
08:19 5.2 °C 4 °C 1013.8 hPa WSW 0.8 km/h 3.2 km/h 89% 0 mm 97 W/m2
08:24 5.3 °C 4.1 °C 1013.8 hPa WSW 0.6 km/h 3.2 km/h 89% 0 mm 83 W/m2
08:29 5.4 °C 4.2 °C 1013.8 hPa Calm     89% 0 mm 148 W/m2
08:34 5.7 °C 4.5 °C 1013.8 hPa Calm     88.8% 0 mm 221 W/m2
08:39 6.1 °C 4.8 °C 1013.8 hPa Calm     87.8% 0 mm 279 W/m2
08:44 6.3 °C 4.8 °C 1013.4 hPa WSW 1 km/h 3.2 km/h 86.8% 0 mm 295 W/m2
08:49 6.6 °C 4.9 °C 1013.4 hPa WSW 1.3 km/h 8 km/h 86% 0 mm 265 W/m2
08:54 6.7 °C 4.8 °C 1013.4 hPa WSW 4 km/h 11.3 km/h 85% 0 mm 269 W/m2
08:59 6.7 °C 4.8 °C 1013.4 hPa WSW 7.1 km/h 14.5 km/h 85% 0 mm 265 W/m2
09:04 6.8 °C 4.8 °C 1013.4 hPa SW 7.6 km/h 16.1 km/h 84% 0 mm 292 W/m2
09:09 6.9 °C 4.7 °C 1013.4 hPa WSW 8.7 km/h 14.5 km/h 83.2% 0 mm 236 W/m2
09:14 6.9 °C 4.8 °C 1013.4 hPa West 6 km/h 16.1 km/h 83% 0 mm 216 W/m2
09:19 7.2 °C 5.1 °C 1013.4 hPa West 4.5 km/h 9.7 km/h 83% 0 mm 285 W/m2
09:24 7.3 °C 4.9 °C 1013.4 hPa West 6.6 km/h 16.1 km/h 82% 0 mm 218 W/m2
09:29 7.3 °C 4.9 °C 1013.4 hPa WSW 4 km/h 16.1 km/h 82% 0 mm 272 W/m2
09:34 7.5 °C 5 °C 1013.4 hPa WSW 5.1 km/h 12.9 km/h 81.4% 0 mm 272 W/m2
09:39 7.6 °C 5 °C 1013.4 hPa WSW 8.5 km/h 19.3 km/h 81% 0 mm 318 W/m2
09:44 7.6 °C 5 °C 1013.4 hPa WSW 8.5 km/h 16.1 km/h 81% 0 mm 134 W/m2
09:49 7.5 °C 4.9 °C 1013.4 hPa WSW 7.7 km/h 16.1 km/h 81% 0 mm 193 W/m2
09:54 7.6 °C 5.1 °C 1013.4 hPa WSW 5.1 km/h 14.5 km/h 81.2% 0 mm 452 W/m2
09:59 7.8 °C 5.2 °C 1013.4 hPa WSW 9.2 km/h 16.1 km/h 81% 0 mm 503 W/m2
10:04 8.1 °C 5.3 °C 1013.4 hPa SW 6.3 km/h 14.5 km/h 80.6% 0 mm 506 W/m2
10:09 8.6 °C 5.7 °C 1013.4 hPa SW 6.6 km/h 16.1 km/h 79.8% 0 mm 501 W/m2
10:14 8.8 °C 5.8 °C 1013.4 hPa SSW 5.8 km/h 11.3 km/h 78.2% 0 mm 527 W/m2
10:19 9.1 °C 5.8 °C 1013.4 hPa WSW 6.4 km/h 14.5 km/h 77.4% 0 mm 589 W/m2
10:24 9.2 °C 5.8 °C 1013.4 hPa WSW 10.9 km/h 19.3 km/h 76.6% 0 mm 601 W/m2
10:29 9.2 °C 5.7 °C 1013.4 hPa WSW 9.7 km/h 19.3 km/h 76.2% 0 mm 640 W/m2
10:34 9.3 °C 5.7 °C 1013.1 hPa West 11.6 km/h 20.9 km/h 75.8% 0 mm 677 W/m2
10:39 9.5 °C 5.9 °C 1013.1 hPa West 7.6 km/h 16.1 km/h 75.5% 0 mm 700 W/m2
10:44 9.9 °C 6.1 °C 1013.1 hPa West 7.1 km/h 14.5 km/h 74.4% 0 mm 789 W/m2
10:49 10.1 °C 6.2 °C 1013.1 hPa WSW 9.7 km/h 16.1 km/h 74% 0 mm 803 W/m2
10:59 9.6 °C 5.6 °C 1013.1 hPa WSW 7.9 km/h 17.7 km/h 73.2% 0 mm 262 W/m2
11:04 9.8 °C 5.7 °C 1013.1 hPa West 7.7 km/h 16.1 km/h 73.4% 0 mm 431 W/m2
11:14 10 °C 5.7 °C 1013.1 hPa WNW 12.6 km/h 24.1 km/h 72% 0 mm 237 W/m2
11:19 9.7 °C 5.3 °C 1013.1 hPa WNW 12.6 km/h 24.1 km/h 72% 0 mm 241 W/m2
11:24 9.6 °C 5.5 °C 1013.1 hPa West 7.4 km/h 17.7 km/h 73% 0 mm 262 W/m2
11:29 9.7 °C 5.6 °C 1013.1 hPa WSW 7.6 km/h 14.5 km/h 73% 0 mm 237 W/m2
11:34 9.7 °C 5.4 °C 1013.1 hPa West 9 km/h 16.1 km/h 72% 0 mm 172 W/m2
11:39 9.6 °C 5.2 °C 1013.1 hPa WNW 9.2 km/h 19.3 km/h 71.6% 0 mm 151 W/m2
11:44 9.3 °C 5.3 °C 1013.1 hPa WNW 9.7 km/h 20.9 km/h 73.2% 0 mm 169 W/m2
11:49 9.1 °C 5.2 °C 1013.1 hPa NW 10.6 km/h 16.1 km/h 74% 0 mm 144 W/m2
11:54 9.1 °C 5.3 °C 1013.1 hPa WNW 10 km/h 17.7 km/h 74.8% 0 mm 125 W/m2
11:59 9.1 °C 5.4 °C 1013.1 hPa WNW 7.2 km/h 17.7 km/h 75% 0 mm 141 W/m2
12:04 9.1 °C 5.3 °C 1013.1 hPa WNW 10 km/h 19.3 km/h 75% 0 mm 183 W/m2
12:09 9.1 °C 5.4 °C 1012.8 hPa WNW 6.4 km/h 11.3 km/h 75% 0 mm 207 W/m2
12:14 9.2 °C 5.5 °C 1012.8 hPa WNW 5.6 km/h 12.9 km/h 75% 0 mm 237 W/m2
12:19 9.3 °C 5.5 °C 1012.8 hPa WNW 9.8 km/h 17.7 km/h 74.6% 0 mm 301 W/m2
12:24 9.5 °C 5.6 °C 1012.8 hPa WNW 6.4 km/h 14.5 km/h 74% 0 mm 316 W/m2
12:29 9.6 °C 5.6 °C 1012.8 hPa NW 12.7 km/h 22.5 km/h 73.6% 0 mm 325 W/m2
12:34 9.3 °C 5.8 °C 1012.8 hPa NW 12.9 km/h 22.5 km/h 75.8% 0 mm 265 W/m2
12:39 9.1 °C 5.8 °C 1012.8 hPa WNW 9 km/h 17.7 km/h 77.2% 0 mm 276 W/m2
12:43 9 °C 5.9 °C 1012.8 hPa WNW 8.9 km/h 16.1 km/h 78% 0 mm 241 W/m2
12:49 8.9 °C 5.8 °C 1012.8 hPa WNW 6.8 km/h 12.9 km/h 78% 0 mm 243 W/m2
12:53 8.9 °C 5.8 °C 1012.8 hPa WNW 6 km/h 12.9 km/h 78% 0 mm 250 W/m2
12:59 9.1 °C 6 °C 1012.8 hPa NW 5.6 km/h 11.3 km/h 78% 0 mm 236 W/m2
13:04 9.3 °C 6 °C 1012.8 hPa NW 6.4 km/h 14.5 km/h 77.4% 0 mm 211 W/m2
13:09 9.3 °C 6.1 °C 1012.8 hPa NW 5.8 km/h 11.3 km/h 77% 0 mm 176 W/m2
13:14 9.3 °C 5.8 °C 1012.8 hPa NW 8.5 km/h 16.1 km/h 76% 0 mm 218 W/m2
13:19 9.4 °C 5.8 °C 1012.8 hPa WNW 9 km/h 16.1 km/h 75.4% 0 mm 220 W/m2
13:24 9.5 °C 5.8 °C 1012.8 hPa WNW 6.4 km/h 11.3 km/h 75% 0 mm 192 W/m2
13:29 9.7 °C 5.7 °C 1012.8 hPa WNW 8.4 km/h 17.7 km/h 73.4% 0 mm 248 W/m2
13:34 9.8 °C 5.5 °C 1012.8 hPa West 7.1 km/h 14.5 km/h 71.8% 0 mm 327 W/m2
13:39 10.1 °C 5.6 °C 1012.8 hPa West 8.9 km/h 14.5 km/h 71% 0 mm 369 W/m2
13:44 10.2 °C 5.5 °C 1012.4 hPa West 8.9 km/h 14.5 km/h 70.4% 0 mm 360 W/m2
13:49 10.2 °C 5.7 °C 1012.4 hPa NW 8.5 km/h 17.7 km/h 71% 0 mm 327 W/m2
13:54 10.3 °C 5.4 °C 1012.4 hPa West 6 km/h 16.1 km/h 69.4% 0 mm 345 W/m2
14:04 10.7 °C 5.3 °C 1012.4 hPa WSW 5.1 km/h 11.3 km/h 67.5% 0 mm 260 W/m2
14:08 10.8 °C 5.3 °C 1012.4 hPa West 5.6 km/h 14.5 km/h 66.3% 0 mm 278 W/m2
14:14 11.2 °C 5.7 °C 1012.4 hPa West 6.6 km/h 14.5 km/h 66.4% 0 mm 765 W/m2
14:19 11.2 °C 5.7 °C 1012.4 hPa West 5.6 km/h 11.3 km/h 66.4% 0 mm 260 W/m2
14:24 11.1 °C 5.4 °C 1012.4 hPa West 8.7 km/h 19.3 km/h 66% 0 mm 244 W/m2
14:29 11 °C 5 °C 1012.4 hPa West 9.2 km/h 17.7 km/h 64.4% 0 mm 221 W/m2
14:39 10.8 °C 5 °C 1012.1 hPa NW 10.3 km/h 17.7 km/h 65% 0 mm 169 W/m2
14:49 10.6 °C 5.2 °C 1012.1 hPa WNW 7.1 km/h 17.7 km/h 67% 0 mm 142 W/m2
14:54 10.6 °C 5.3 °C 1012.1 hPa WNW 9.7 km/h 22.5 km/h 67.6% 0 mm 149 W/m2
14:59 10.4 °C 5.5 °C 1012.1 hPa WNW 11.3 km/h 25.7 km/h 69.4% 0 mm 163 W/m2
15:04 10.2 °C 6 °C 1012.1 hPa NW 11.6 km/h 25.7 km/h 72.2% 0 mm 178 W/m2
15:09 10 °C 6.1 °C 1012.1 hPa NW 12.9 km/h 20.9 km/h 74% 0 mm 204 W/m2
15:14 9.9 °C 6.2 °C 1012.1 hPa NNW 8 km/h 19.3 km/h 75% 0 mm 211 W/m2
15:19 10 °C 6.3 °C 1012.1 hPa NW 9.5 km/h 20.9 km/h 75% 0 mm 207 W/m2
15:24 9.9 °C 6.1 °C 1012.1 hPa NW 11.6 km/h 20.9 km/h 74% 0 mm 181 W/m2
15:29 9.9 °C 6.1 °C 1012.1 hPa NNW 8.5 km/h 14.5 km/h 74.4% 0 mm 142 W/m2
15:34 9.9 °C 6.2 °C 1012.1 hPa WNW 7.7 km/h 12.9 km/h 75% 0 mm 169 W/m2
15:39 9.9 °C 6.2 °C 1012.1 hPa NW 8.5 km/h 17.7 km/h 75% 0 mm 206 W/m2
15:44 9.8 °C 6.2 °C 1012.1 hPa NW 10.6 km/h 16.1 km/h 75.4% 0 mm 279 W/m2
15:49 9.8 °C 6.2 °C 1012.1 hPa NNW 11.6 km/h 17.7 km/h 75.2% 0 mm 385 W/m2
15:54 10 °C 6 °C 1012.1 hPa NW 12.6 km/h 24.1 km/h 73.6% 0 mm 267 W/m2
15:59 10 °C 5.9 °C 1012.1 hPa WNW 13.4 km/h 24.1 km/h 73% 0 mm 346 W/m2
16:04 10.2 °C 6.1 °C 1012.1 hPa WNW 9.7 km/h 16.1 km/h 73% 0 mm 269 W/m2
16:09 10.2 °C 6.1 °C 1012.1 hPa WNW 9.5 km/h 19.3 km/h 73% 0 mm 248 W/m2
16:14 10.2 °C 6.1 °C 1012.1 hPa WNW 9.7 km/h 22.5 km/h 73% 0 mm 223 W/m2
16:19 10.1 °C 6.1 °C 1012.1 hPa NW 7.9 km/h 22.5 km/h 73.2% 0 mm 207 W/m2
16:29 9.9 °C 6 °C 1012.1 hPa WNW 10.5 km/h 17.7 km/h 74% 0 mm 109 W/m2
16:34 9.8 °C 5.9 °C 1012.1 hPa NW 11.7 km/h 24.1 km/h 74.4% 0 mm 155 W/m2
16:39 9.6 °C 6.2 °C 1012.1 hPa NNW 12.6 km/h 22.5 km/h 76.6% 0 mm 174 W/m2
16:44 9.2 °C 6 °C 1012.1 hPa NNW 10.6 km/h 20.9 km/h 77.6% 0 mm 174 W/m2
16:49 8.8 °C 5.7 °C 1012.1 hPa North 12.9 km/h 22.5 km/h 78% 0 mm 272 W/m2
16:54 8.6 °C 5.7 °C 1012.1 hPa North 12.4 km/h 20.9 km/h 79% 0 mm 612 W/m2
16:59 8.8 °C 5.8 °C 1012.1 hPa NNE 8 km/h 16.1 km/h 79% 0 mm 596 W/m2
17:04 8.8 °C 5.8 °C 1012.1 hPa NNE 9.3 km/h 17.7 km/h 79% 0 mm 253 W/m2
17:09 9 °C 6 °C 1012.1 hPa NNE 6.4 km/h 12.9 km/h 79% 0 mm 478 W/m2
17:14 9.2 °C 6.2 °C 1012.1 hPa NNE 4.3 km/h 19.3 km/h 79% 0 mm 200 W/m2
17:19 9.2 °C 6 °C 1012.1 hPa NE 7.1 km/h 19.3 km/h 78% 0 mm 174 W/m2
17:24 9.3 °C 6.1 °C 1012.1 hPa North 2.9 km/h 11.3 km/h 78% 0 mm 148 W/m2
17:29 9.3 °C 6 °C 1012.1 hPa North 7.7 km/h 11.3 km/h 77.2% 0 mm 174 W/m2
17:34 9.1 °C 5.8 °C 1012.1 hPa North 5.3 km/h 12.9 km/h 77.2% 0 mm 216 W/m2
17:39 9.1 °C 5.9 °C 1012.1 hPa North 5.6 km/h 14.5 km/h 77.6% 0 mm 188 W/m2
17:44 9 °C 5.9 °C 1012.1 hPa North 4.7 km/h 12.9 km/h 78% 0 mm 183 W/m2
17:49 8.9 °C 5.8 °C 1012.1 hPa North 7.2 km/h 17.7 km/h 78% 0 mm 181 W/m2
17:54 8.8 °C 5.8 °C 1012.1 hPa NNE 9 km/h 11.3 km/h 78.4% 0 mm 162 W/m2
17:59 8.7 °C 5.7 °C 1012.1 hPa NNE 7.1 km/h 17.7 km/h 79% 0 mm 123 W/m2
18:04 8.6 °C 5.7 °C 1012.1 hPa North 7.7 km/h 11.3 km/h 79% 0 mm 109 W/m2
18:14 8.4 °C 5.5 °C 1012.4 hPa NE 6.8 km/h 12.9 km/h 79% 0 mm 113 W/m2
18:19 8.4 °C 5.5 °C 1012.4 hPa NNE 4 km/h 9.7 km/h 79% 0 mm 118 W/m2
18:24 8.4 °C 5.3 °C 1012.4 hPa North 9 km/h 17.7 km/h 78.2% 0 mm 111 W/m2
18:29 8.3 °C 5.2 °C 1012.4 hPa North 7.4 km/h 14.5 km/h 78% 0 mm 90 W/m2
18:34 8.3 °C 5.1 °C 1012.4 hPa NNE 7.9 km/h 12.9 km/h 77.4% 0 mm 77 W/m2
18:44 8.3 °C 4.8 °C 1012.4 hPa NE 5.6 km/h 11.3 km/h 76.2% 0 mm 76 W/m2
18:49 8.3 °C 4.8 °C 1012.4 hPa NNE 8 km/h 11.3 km/h 76% 0 mm 76 W/m2
18:59 8.2 °C 4.4 °C 1012.4 hPa North 4.7 km/h 11.3 km/h 75% 0 mm 72 W/m2
19:04 8.1 °C 4.4 °C 1012.4 hPa North 3.2 km/h 8 km/h 75.3% 0 mm 58 W/m2
19:09 8.2 °C 4.7 °C 1012.4 hPa North 4.8 km/h 8 km/h 75.8% 0 mm 58 W/m2
19:14 8.2 °C 4.5 °C 1012.4 hPa North 2.3 km/h 8 km/h 75% 0 mm 46 W/m2
19:19 8.2 °C 4.4 °C 1012.4 hPa North 1.6 km/h 4.8 km/h 75% 0 mm 30 W/m2
19:24 8.1 °C 4.4 °C 1012.4 hPa North 2.7 km/h 4.8 km/h 75% 0 mm 26 W/m2
19:29 7.9 °C 4.2 °C 1012.4 hPa North 2.9 km/h 8 km/h 75% 0 mm 26 W/m2
19:34 7.9 °C 4.4 °C 1012.4 hPa North 0.3 km/h 4.8 km/h 76% 0 mm 25 W/m2
19:44 7.9 °C 4.3 °C 1012.4 hPa North 1.4 km/h 3.2 km/h 75.2% 0 mm 12 W/m2
19:49 7.9 °C 4.2 °C 1012.8 hPa North 1.8 km/h 6.4 km/h 75% 0 mm 9 W/m2
19:54 7.9 °C 4.3 °C 1012.8 hPa Calm   4.8 km/h 75.8% 0 mm 7 W/m2
19:59 7.9 °C 4.4 °C 1012.8 hPa North 1.1 km/h 4.8 km/h 76% 0 mm 0 W/m2
20:04 7.8 °C 4.3 °C 1012.8 hPa North 2.4 km/h 4.8 km/h 76% 0 mm 0 W/m2
20:09 7.8 °C 4.3 °C 1012.8 hPa North 2.9 km/h 4.8 km/h 76% 0 mm 0 W/m2
20:14 7.8 °C 4.3 °C 1012.8 hPa North 1.6 km/h 4.8 km/h 76% 0 mm 0 W/m2
20:19 7.7 °C 4.2 °C 1012.8 hPa Calm   4.8 km/h 76% 0 mm 0 W/m2
20:24 7.8 °C 4.3 °C 1012.8 hPa Calm     76.2% 0 mm 0 W/m2
20:29 7.8 °C 4.5 °C 1012.8 hPa Calm     77% 0 mm 0 W/m2
20:39 7.7 °C 4.6 °C 1012.8 hPa Calm     77.6% 0 mm 0 W/m2
20:44 7.7 °C 4.6 °C 1012.8 hPa North 1 km/h 3.2 km/h 78% 0 mm 0 W/m2
20:49 7.6 °C 4.6 °C 1012.8 hPa North 1.3 km/h 3.2 km/h 78.4% 0 mm 0 W/m2
20:54 7.6 °C 4.7 °C 1013.1 hPa North 1 km/h 3.2 km/h 79% 0 mm 0 W/m2
20:59 7.4 °C 4.6 °C 1013.1 hPa Calm     79% 0 mm 0 W/m2
21:04 7.3 °C 4.4 °C 1013.1 hPa Calm     79% 0 mm 0 W/m2
21:06 7.3 °C 4.3 °C 1013.1 hPa North 2.4 km/h 3.2 km/h 79% 0 mm 0 W/m2
21:14 7.2 °C 4.4 °C 1013.1 hPa Calm   3.2 km/h 79.8% 0 mm 0 W/m2
21:19 7.2 °C 4.5 °C 1013.1 hPa Calm     80% 0 mm 0 W/m2
21:24 7.2 °C 4.5 °C 1013.1 hPa Calm     80% 0 mm 0 W/m2
21:29 7.2 °C 4.4 °C 1013.1 hPa Calm     80% 0 mm 0 W/m2
21:34 7.1 °C 4.4 °C 1013.1 hPa Calm     80% 0 mm 0 W/m2
21:39 6.9 °C 4.3 °C 1013.1 hPa North 1.1 km/h 3.2 km/h 80.6% 0 mm 0 W/m2
21:44 6.9 °C 4.4 °C 1013.1 hPa Calm   3.2 km/h 81% 0 mm 0 W/m2
21:49 6.8 °C 4.3 °C 1013.1 hPa Calm     81.4% 0 mm 0 W/m2
21:54 6.7 °C 4.3 °C 1013.4 hPa Calm     81.6% 0 mm 0 W/m2
21:59 6.7 °C 4.3 °C 1013.4 hPa Calm     82% 0 mm 0 W/m2
22:04 6.7 °C 4.2 °C 1013.4 hPa Calm     82% 0 mm 0 W/m2
22:09 6.6 °C 4.2 °C 1013.4 hPa Calm     82.2% 0 mm 0 W/m2
22:14 6.5 °C 4.2 °C 1013.4 hPa Calm     82.8% 0 mm 0 W/m2
22:19 6.5 °C 4.3 °C 1013.4 hPa Calm     83% 0 mm 0 W/m2
22:24 6.5 °C 4.3 °C 1013.4 hPa Calm     83% 0 mm 0 W/m2
22:29 6.5 °C 4.3 °C 1013.4 hPa Calm     83% 0 mm 0 W/m2
22:34 6.6 °C 4.4 °C 1013.4 hPa North 4.8 km/h 8 km/h 83.5% 0 mm 0 W/m2
22:39 6.5 °C 4.3 °C 1013.4 hPa North 7.7 km/h 12.9 km/h 83% 0 mm 0 W/m2
22:44 6.6 °C 4.4 °C 1013.4 hPa NNE 6.1 km/h 11.3 km/h 83% 0 mm 0 W/m2
22:49 6.7 °C 4.4 °C 1013.4 hPa NNE 5.6 km/h 12.9 km/h 83% 0 mm 0 W/m2
22:54 6.7 °C 4.5 °C 1013.4 hPa NE 2.3 km/h 12.9 km/h 83% 0 mm 0 W/m2
22:59 6.7 °C 4.5 °C 1013.4 hPa NNE 6 km/h 11.3 km/h 83% 0 mm 0 W/m2
23:04 6.7 °C 4.5 °C 1013.4 hPa NNE 2.1 km/h 9.7 km/h 83% 0 mm 0 W/m2
23:09 6.6 °C 4.4 °C 1013.4 hPa NE 3.5 km/h 9.7 km/h 83% 0 mm 0 W/m2
23:14 6.6 °C 4.4 °C 1013.4 hPa NE 6 km/h 14.5 km/h 83% 0 mm 0 W/m2
23:19 6.6 °C 4.3 °C 1013.4 hPa NE 5.1 km/h 12.9 km/h 83% 0 mm 0 W/m2
23:24 6.6 °C 4.4 °C 1013.4 hPa NE 3.5 km/h 9.7 km/h 83% 0 mm 0 W/m2
23:29 6.6 °C 4.4 °C 1013.4 hPa NE 4.5 km/h 11.3 km/h 83% 0 mm 0 W/m2
23:34 6.6 °C 4.4 °C 1013.4 hPa NE 3.1 km/h 11.3 km/h 83% 0 mm 0 W/m2
23:39 6.7 °C 4.4 °C 1013.4 hPa NE 3.2 km/h 11.3 km/h 83% 0 mm 0 W/m2
23:44 6.6 °C 4.4 °C 1013.4 hPa NE 1.3 km/h 6.4 km/h 83% 0 mm 0 W/m2
23:49 6.7 °C 4.4 °C 1013.4 hPa NE 3.4 km/h 6.4 km/h 83% 0 mm 0 W/m2
23:54 6.7 °C 4.4 °C 1013.4 hPa NE 4.8 km/h 11.3 km/h 83% 0 mm 0 W/m2
23:59 6.6 °C 4.4 °C 1013.4 hPa NE 2.6 km/h 6.4 km/h 83% 0 mm 0 W/m2
Bath Spa Weather
Compliments of Weather Underground - 2 mb